Latest Weather Observations for Larapuna (Eddystone Point)

IDT60801

Issued at 8:05 pm EST Thursday 2 October 2014 (issued every 30 minutes, with the page automatically refreshed every 10 minutes)

About weather observations | Map of weather stations | Latest weather observations for TAS | Other Formats
Station Details ID: 092045 Name: LARAPUNA (EDDYSTONE POINT) Lat: -40.99 Lon: 148.35 Height: 19.7 m
Data from the previous 72 hours. | See also: Recent months at Larapuna (Eddystone Point)
Date/Time
EST
Temp
°C
App
Temp
°C
Dew
Point
Rel
Hum
%
Delta-T
°C
Wind Press
QNH
hPa
Press
MSL
hPa
Rain
since 9 am
mm
Dir
 
Spd
km/h
Gust
km/h
Spd
kts
Gust
kts
02/08:00pm 12.2 7.8 9.0 81 1.6 SSE 22 26 12 14 1016.9 1016.9 0.0
02/07:30pm 12.5 6.7 9.5 82 1.5 SSE 30 35 16 19 1016.4 1016.4 0.0
02/07:00pm 12.7 6.6 9.9 83 1.4 SSE 32 37 17 20 1015.9 1015.9 0.0
02/06:30pm 13.1 6.6 10.3 83 1.5 SSE 35 41 19 22 1015.3 1015.3 0.0
02/06:00pm 13.9 8.8 10.7 81 1.7 SE 28 39 15 21 1014.7 1014.7 0.0
02/05:30pm 15.7 11.5 9.6 67 3.2 SE 22 33 12 18 1014.0 1014.0 0.0
02/05:00pm 17.7 17.0 8.6 55 4.7 E 2 7 1 4 1013.4 1013.4 0.0
02/04:30pm 18.6 16.2 7.1 47 5.8 E 9 13 5 7 1013.1 1013.1 0.0
02/04:00pm 19.4 17.1 7.5 46 6.1 SSE 9 11 5 6 1012.8 1012.8 0.0
02/03:30pm 20.1 18.4 8.4 47 6.1 NW 7 15 4 8 1012.4 1012.4 0.0
02/03:00pm 19.8 17.1 10.2 54 5.2 W 15 30 8 16 1012.2 1012.2 0.0
02/02:30pm 18.6 13.9 9.4 55 4.8 WNW 24 39 13 21 1012.0 1012.0 0.0
02/02:00pm 19.4 13.6 10.9 58 4.6 NW 32 46 17 25 1011.7 1011.7 0.0
02/01:37pm 18.0 11.0 9.9 59 4.3 NNW 37 61 20 33 1011.7 1011.7 0.0
02/01:30pm 17.5 10.1 9.7 60 4.1 NNW 39 50 21 27 1011.7 1011.7 0.0
02/01:00pm 17.9 10.5 9.8 59 4.3 NNW 39 52 21 28 1011.6 1011.6 0.0
02/12:30pm 18.0 10.0 9.1 56 4.6 NW 41 52 22 28 1011.9 1011.9 0.0
02/12:25pm 18.0 11.6 9.4 57 4.5 NW 33 52 18 28 1011.9 1011.9 0.0
02/12:00pm 17.7 11.4 9.1 57 4.5 NW 32 46 17 25 1012.3 1012.3 0.0
02/11:30am 16.4 10.9 9.1 62 3.8 NW 28 41 15 22 1012.5 1012.5 0.0
02/11:00am 16.6 9.8 9.3 62 3.8 NW 35 48 19 26 1012.7 1012.7 0.0
02/10:30am 16.5 10.6 9.0 61 3.9 WNW 30 44 16 24 1013.0 1013.0 0.0
02/10:00am 16.0 10.5 9.0 63 3.6 NW 28 39 15 21 1013.2 1013.2 0.0
02/09:30am 15.3 9.0 9.0 66 3.2 WNW 32 43 17 23 1013.4 1013.4 0.0
02/09:00am 14.7 8.2 8.0 64 3.3 W 32 52 17 28 1013.6 1013.6 0.0
02/08:30am 14.3 7.8 8.3 67 3.0 W 32 46 17 25 1013.5 1013.5 0.0
02/08:00am 13.7 7.2 8.3 70 2.7 WNW 32 44 17 24 1013.4 1013.4 0.0
02/07:49am 13.4 7.6 8.0 70 2.7 W 28 48 15 26 1013.3 1013.3 0.0
02/07:30am 12.9 8.8 8.0 72 2.4 WNW 19 30 10 16 1013.4 1013.4 0.0
02/07:00am 12.0 7.9 7.9 76 2.0 WNW 19 28 10 15 1013.4 1013.4 0.0
02/06:30am 11.3 7.6 8.0 80 1.6 W 17 24 9 13 1013.3 1013.3 0.0
02/06:00am 11.1 4.3 7.8 80 1.6 W 33 46 18 25 1012.6 1012.6 0.0
02/05:30am 11.2 5.0 7.7 79 1.7 W 30 43 16 23 1012.4 1012.4 0.0
02/05:00am 11.5 3.3 8.0 79 1.7 W 41 67 22 36 1011.6 1011.6 0.0
02/04:34am 11.6 3.0 8.3 80 1.6 WNW 43 61 23 33 1011.3 1011.3 0.0
02/04:30am 11.5 2.9 8.2 80 1.6 WNW 43 57 23 31 1011.4 1011.4 0.0
02/04:01am 11.5 5.7 7.8 78 1.8 W 28 54 15 29 1012.1 1012.1 0.0
02/04:00am 11.5 6.1 7.8 78 1.8 W 26 37 14 20 1012.1 1012.1 0.0
02/03:30am 11.5 7.2 7.8 78 1.8 WNW 20 33 11 18 1012.4 1012.4 0.0
02/03:00am 11.4 7.7 8.1 80 1.6 WNW 17 30 9 16 1012.5 1012.5 0.0
02/02:30am 11.5 7.0 8.4 81 1.5 NNW 22 32 12 17 1013.1 1013.1 0.0
02/02:00am 11.8 6.9 8.6 81 1.6 NNW 24 35 13 19 1013.3 1013.3 0.0
02/01:30am 11.9 7.8 8.6 80 1.6 NW 20 35 11 19 1014.0 1014.0 0.0
02/01:00am 11.8 7.9 8.5 80 1.6 WNW 19 37 10 20 1014.3 1014.3 0.0
02/12:30am 11.8 7.7 8.5 80 1.6 WNW 20 30 11 16 1014.5 1014.5 0.0
02/12:04am 11.8 6.1 8.5 80 1.6 WNW 28 48 15 26 1014.8 1014.8 0.0
02/12:00am 11.7 6.8 8.4 80 1.6 NW 24 39 13 21 1014.8 1014.8 0.0
 
Date/Time
EST
Temp
°C
App
Temp
°C
Dew
Point
Rel
Hum
%
Delta-T
°C
Wind Press
QNH
hPa
Press
MSL
hPa
Rain
since 9 am
mm
Dir
 
Spd
km/h
Gust
km/h
Spd
kts
Gust
kts
01/11:30pm 11.3 5.9 8.0 80 1.6 NW 26 41 14 22 1015.2 1015.2 0.0
01/11:00pm 10.6 4.6 6.9 78 1.7 WNW 28 39 15 21 1015.7 1015.7 0.0
01/10:30pm 9.9 5.3 5.5 74 2.0 WNW 19 30 10 16 1016.3 1016.3 0.0
01/10:00pm 9.8 4.8 4.8 71 2.2 NW 20 32 11 17 1016.6 1016.6 0.0
01/09:30pm 9.7 4.8 4.3 69 2.4 NW 19 24 10 13 1017.2 1017.2 0.0
01/09:00pm 10.0 4.2 4.4 68 2.5 WNW 24 32 13 17 1017.4 1017.4 0.0
01/08:30pm 10.4 3.7 3.7 63 2.9 W 28 39 15 21 1017.3 1017.3 0.0
01/08:00pm 10.6 4.0 4.3 65 2.8 W 28 41 15 22 1017.2 1017.2 0.0
01/07:30pm 11.1 4.5 4.3 63 3.0 WNW 28 37 15 20 1017.2 1017.2 0.0
01/07:00pm 11.2 5.1 4.7 64 2.9 WNW 26 39 14 21 1016.9 1016.9 0.0
01/06:30pm 11.3 5.0 5.6 68 2.6 NW 28 41 15 22 1016.3 1016.3 0.0
01/06:00pm 11.6 4.9 5.7 67 2.7 WNW 30 43 16 23 1016.3 1016.3 0.0
01/05:30pm 12.7 6.2 4.9 59 3.6 WNW 28 41 15 22 1015.7 1015.7 0.0
01/05:24pm 12.7 6.2 4.7 58 3.7 WNW 28 46 15 25 1015.7 1015.7 0.0
01/05:00pm 13.5 6.7 4.9 56 4.0 WNW 30 41 16 22 1015.5 1015.5 0.0
01/04:30pm 13.5 4.9 4.9 56 4.0 WNW 39 56 21 30 1015.2 1015.2 0.0
01/04:16pm 14.3 7.5 4.9 53 4.4 WNW 30 48 16 26 1015.0 1015.0 0.0
01/04:00pm 14.2 6.4 4.8 53 4.4 WNW 35 50 19 27 1015.1 1015.1 0.0
01/03:30pm 14.0 5.8 4.9 54 4.2 WNW 37 56 20 30 1015.2 1015.2 0.0
01/03:09pm 14.4 6.9 4.4 51 4.6 WNW 33 52 18 28 1015.1 1015.1 0.0
01/03:00pm 14.3 6.7 4.0 50 4.7 WNW 33 46 18 25 1015.1 1015.1 0.0
01/02:30pm 14.7 6.4 4.1 49 4.9 WNW 37 50 20 27 1015.0 1015.0 0.0
01/02:00pm 15.4 7.5 4.2 47 5.2 WNW 35 46 19 25 1014.9 1014.9 0.0
01/01:32pm 15.1 8.6 4.8 50 4.8 W 28 46 15 25 1014.8 1014.8 0.0
01/01:30pm 14.9 8.3 4.3 49 4.9 W 28 44 15 24 1014.8 1014.8 0.0
01/01:00pm 15.1 7.3 4.8 50 4.8 NW 35 48 19 26 1014.9 1014.9 0.0
01/12:30pm 15.7 8.4 4.4 47 5.3 NW 32 43 17 23 1014.9 1014.9 0.0
01/12:00pm 15.5 9.0 4.5 48 5.1 NW 28 41 15 22 1014.8 1014.8 0.0
01/11:30am 15.1 9.6 2.0 41 5.8 WNW 20 32 11 17 1014.8 1014.8 0.0
01/11:00am 15.3 11.3 2.8 43 5.6 S 13 22 7 12 1015.0 1015.0 0.0
01/10:30am 13.8 9.2 3.6 50 4.6 NNE 17 20 9 11 1015.2 1015.2 0.0
01/10:00am 13.3 10.2 1.6 45 5.0 WSW 7 15 4 8 1015.1 1015.1 0.0
01/09:30am 12.8 9.5 2.4 49 4.5 SSW 9 15 5 8 1015.0 1015.0 0.0
01/09:00am 11.3 7.8 1.3 50 4.2 SSW 9 19 5 10 1014.9 1014.9 3.0
01/08:30am 11.1 8.0 3.6 60 3.3 W 9 13 5 7 1014.4 1014.4 3.0
01/08:00am 9.4 5.2 3.6 67 2.5 W 15 19 8 10 1014.0 1014.0 3.0
01/07:30am 7.8 2.5 2.1 67 2.4 W 19 26 10 14 1013.3 1013.3 3.0
01/07:00am 6.5 0.6 2.0 73 1.8 WNW 22 30 12 16 1012.6 1012.6 3.0
01/06:30am 5.4 -0.2 1.0 73 1.7 W 20 28 11 15 1011.8 1011.8 3.0
01/06:00am 4.6 -1.8 0.9 77 1.4 WNW 24 30 13 16 1010.7 1010.7 3.0
01/05:30am 4.5 -2.3 1.0 78 1.4 WNW 26 32 14 17 1010.2 1010.2 3.0
01/05:00am 4.8 -1.6 1.1 77 1.4 WNW 24 30 13 16 1009.5 1009.5 3.0
01/04:30am 5.1 -1.3 1.0 75 1.6 W 24 32 13 17 1008.7 1008.7 3.0
01/04:00am 5.3 -1.4 1.4 76 1.5 W 26 33 14 18 1008.3 1008.3 3.0
01/03:30am 5.2 -0.4 1.5 77 1.5 WNW 20 30 11 16 1007.2 1007.2 3.0
01/03:00am 5.2 -0.7 1.5 77 1.5 W 22 30 12 16 1006.8 1006.8 3.0
01/02:30am 5.2 -1.0 1.9 79 1.3 W 24 30 13 16 1006.6 1006.6 3.0
01/02:00am 5.2 0.3 2.0 80 1.3 W 17 20 9 11 1006.3 1006.3 3.0
01/01:30am 6.1 0.7 2.6 78 1.4 WNW 20 28 11 15 1005.9 1005.9 3.0
01/01:00am 6.0 0.8 2.3 77 1.5 W 19 24 10 13 1005.7 1005.7 3.0
01/12:30am 6.3 2.7 3.1 80 1.3 S 11 15 6 8 1005.7 1005.7 3.0
01/12:00am 5.7 1.3 2.5 80 1.3 W 15 17 8 9 1005.0 1005.0 3.0
 
Date/Time
EST
Temp
°C
App
Temp
°C
Dew
Point
Rel
Hum
%
Delta-T
°C
Wind Press
QNH
hPa
Press
MSL
hPa
Rain
since 9 am
mm
Dir
 
Spd
km/h
Gust
km/h
Spd
kts
Gust
kts
30/11:30pm 6.5 3.3 2.9 78 1.5 SW 9 13 5 7 1004.3 1004.3 3.0
30/11:00pm 7.1 0.0 3.7 79 1.5 W 30 41 16 22 1003.7 1003.7 3.0
30/10:30pm 7.5 0.2 4.3 80 1.4 W 32 44 17 24 1002.8 1002.8 3.0
30/10:00pm 7.7 0.8 4.7 81 1.3 W 30 39 16 21 1002.5 1002.5 3.0
30/09:30pm 8.2 1.0 5.1 81 1.4 W 32 44 17 24 1001.9 1001.9 3.0
30/09:00pm 8.6 1.5 5.5 81 1.4 W 32 43 17 23 1001.5 1001.5 3.0
30/08:30pm 9.3 2.8 6.6 83 1.3 WNW 30 41 16 22 1000.5 1000.5 3.0
30/08:00pm 9.9 2.6 7.0 82 1.4 WNW 35 50 19 27 999.8 999.8 3.0
30/07:30pm 10.1 4.0 8.2 88 0.9 WNW 30 41 16 22 999.3 999.3 3.0
30/07:00pm 10.4 3.5 8.8 90 0.8 WNW 35 48 19 26 999.2 999.2 3.0
30/06:30pm 10.3 3.9 8.7 90 0.8 WNW 32 48 17 26 997.6 997.6 3.0
30/06:15pm 10.5 3.6 8.9 90 0.8 WNW 35 54 19 29 997.4 997.4 3.0
30/06:00pm 10.8 4.0 9.4 91 0.7 WNW 35 46 19 25 997.6 997.6 3.0
30/05:48pm 11.0 4.7 9.6 91 0.7 NW 33 57 18 31 997.7 997.7 3.0
30/05:30pm 10.9 4.7 9.5 91 0.7 NW 32 43 17 23 997.3 997.3 2.6
30/05:00pm 11.0 4.2 9.4 90 0.8 WNW 35 46 19 25 997.4 997.4 2.2
30/04:30pm 11.6 3.9 10.0 90 0.8 WNW 41 59 22 32 997.4 997.4 1.0
30/04:00pm 12.7 4.1 10.2 85 1.3 WNW 46 69 25 37 996.8 996.8 0.0
30/03:47pm 14.8 5.4 10.0 73 2.5 NW 50 82 27 44 996.4 996.4 0.0
30/03:40pm 15.5 7.5 10.3 71 2.7 NNW 43 61 23 33 996.1 996.1 0.0
30/03:30pm 15.1 8.0 10.9 76 2.2 NNW 39 54 21 29 996.1 996.1 0.0
30/03:00pm 14.8 7.8 11.2 79 1.9 NNW 39 50 21 27 996.6 996.6 0.0
30/02:30pm 15.1 6.3 10.9 76 2.2 NNW 48 63 26 34 997.2 997.2 0.0
30/02:00pm 16.2 6.6 10.7 70 2.9 NNW 52 74 28 40 997.6 997.6 0.0
30/01:30pm 16.1 6.5 10.8 71 2.8 NNW 52 76 28 41 998.1 998.1 0.0
30/01:00pm 16.2 5.6 10.7 70 2.9 NW 57 76 31 41 998.5 998.5 0.0
30/12:30pm 16.3 7.4 10.6 69 3.0 NW 48 74 26 40 999.0 999.0 0.0
30/12:00pm 16.5 6.8 10.4 67 3.3 NW 52 70 28 38 999.0 999.0 0.0
30/11:30am 15.8 5.2 10.1 69 3.0 NW 56 82 30 44 999.6 999.6 0.0
30/11:00am 16.6 5.4 10.0 65 3.5 NW 59 83 32 45 1000.2 1000.2 0.0
30/10:32am 16.6 6.4 10.0 65 3.5 NW 54 72 29 39 1000.7 1000.7 0.0
30/10:30am 16.2 5.6 9.8 66 3.3 NW 56 72 30 39 1000.6 1000.6 0.0
30/10:00am 15.2 4.8 9.3 68 3.1 NW 54 74 29 40 1001.3 1001.3 0.0
30/09:30am 15.2 5.4 10.0 71 2.7 NNW 52 72 28 39 1001.7 1001.7 0.0
30/09:00am 15.3 7.9 11.1 76 2.3 NNW 41 61 22 33 1002.4 1002.4 0.0
30/08:54am 15.1 7.9 10.5 74 2.4 NNW 39 61 21 33 1002.6 1002.6 0.0
30/08:30am 15.1 8.0 10.9 76 2.2 NNW 39 52 21 28 1003.1 1003.1 0.0
30/08:00am 14.2 6.4 11.7 85 1.3 NNW 44 56 24 30 1003.5 1003.5 0.0
30/07:30am 13.5 5.6 11.4 87 1.1 NNW 44 57 24 31 1003.9 1003.9 0.0
30/07:00am 13.3 4.9 11.2 87 1.1 N 46 57 25 31 1004.1 1004.1 0.0
30/06:30am 13.1 6.1 11.2 88 1.0 NNW 39 52 21 28 1004.7 1004.7 0.0
30/06:00am 13.0 5.6 11.2 89 1.0 N 41 56 22 30 1004.8 1004.8 0.0
30/05:30am 13.0 5.8 10.7 86 1.2 N 39 46 21 25 1005.1 1005.1 0.0
30/05:00am 13.3 7.7 10.3 82 1.6 NNW 30 39 16 21 1005.8 1005.8 0.0
30/04:30am 13.5 6.9 9.9 79 1.9 NNW 35 48 19 26 1006.1 1006.1 0.0
30/04:00am 13.5 6.5 10.1 80 1.8 NNW 37 46 20 25 1006.4 1006.4 0.0
30/03:30am 13.3 7.2 10.3 82 1.6 NNW 33 46 18 25 1006.5 1006.5 0.0
30/03:00am 13.2 6.7 10.2 82 1.6 NNW 35 46 19 25 1006.8 1006.8 0.0
30/02:30am 13.3 6.0 10.3 82 1.6 NNW 39 52 21 28 1007.1 1007.1 0.0
30/02:00am 13.1 6.1 10.1 82 1.6 NNW 37 57 20 31 1007.6 1007.6 0.0
30/01:30am 13.2 6.7 10.4 83 1.5 NNW 35 54 19 29 1007.9 1007.9 0.0
30/01:00am 13.1 5.1 10.6 85 1.3 NNW 43 57 23 31 1008.2 1008.2 0.0
30/12:30am 12.9 4.8 10.6 86 1.2 NNW 44 57 24 31 1008.3 1008.3 0.0
30/12:18am 12.8 4.6 10.5 86 1.2 NNW 44 63 24 34 1008.3 1008.3 0.0
30/12:00am 12.7 5.1 10.4 86 1.2 NNW 41 52 22 28 1008.3 1008.3 0.0
 
Date/Time
EST
Temp
°C
App
Temp
°C
Dew
Point
Rel
Hum
%
Delta-T
°C
Wind Press
QNH
hPa
Press
MSL
hPa
Rain
since 9 am
mm
Dir
 
Spd
km/h
Gust
km/h
Spd
kts
Gust
kts
29/11:30pm 12.4 5.7 9.6 83 1.4 NNW 35 46 19 25 1008.4 1008.4 0.0
29/11:00pm 12.2 5.8 9.4 83 1.4 NNW 33 43 18 23 1008.4 1008.4 0.0
29/10:30pm 12.2 7.2 9.6 84 1.3 NNW 26 37 14 20 1008.4 1008.4 0.0
29/10:00pm 11.8 7.4 8.8 82 1.5 NW 22 30 12 16 1008.3 1008.3 0.0
29/09:30pm 11.8 8.1 8.1 78 1.8 WNW 17 26 9 14 1008.2 1008.2 0.0
29/09:00pm 11.9 9.0 8.2 78 1.8 WNW 13 22 7 12 1008.3 1008.3 0.0
29/08:30pm 12.0 8.3 8.1 77 1.9 NW 17 28 9 15 1008.6 1008.6 0.0

Other Formats:

Comma delimited format used in spreadsheet applications
http://www.bom.gov.au/fwo/IDT60801/IDT60801.94983.axf

JavaScript Object Notation format (JSON) in row-major order
http://www.bom.gov.au/fwo/IDT60801/IDT60801.94983.json